sensor_id;sensor_type;location;lat;lon;timestamp;pressure;altitude;pressure_sealevel;temperature;humidity
80927;BME280;70385;44.538;18.532;2023-06-10T00:00:55;99003.09;;;14.47;97.39
80927;BME280;70385;44.538;18.532;2023-06-10T00:03:21;98994.53;;;14.43;97.46
80927;BME280;70385;44.538;18.532;2023-06-10T00:05:49;99001.78;;;14.40;97.39
80927;BME280;70385;44.538;18.532;2023-06-10T00:08:17;98994.53;;;14.43;97.37
80927;BME280;70385;44.538;18.532;2023-06-10T00:10:46;98995.56;;;14.41;97.24
80927;BME280;70385;44.538;18.532;2023-06-10T00:13:12;98999.13;;;14.40;97.36
80927;BME280;70385;44.538;18.532;2023-06-10T00:15:40;98995.56;;;14.41;97.36
80927;BME280;70385;44.538;18.532;2023-06-10T00:18:07;98982.72;;;14.36;97.08
80927;BME280;70385;44.538;18.532;2023-06-10T00:20:36;98989.88;;;14.34;97.12
80927;BME280;70385;44.538;18.532;2023-06-10T00:23:03;98996.63;;;14.38;97.26
80927;BME280;70385;44.538;18.532;2023-06-10T00:25:35;98983.22;;;14.28;97.27
80927;BME280;70385;44.538;18.532;2023-06-10T00:28:01;98993.75;;;14.28;97.43
80927;BME280;70385;44.538;18.532;2023-06-10T00:30:30;98989.25;;;14.31;97.59
80927;BME280;70385;44.538;18.532;2023-06-10T00:32:58;98994.72;;;14.27;97.26
80927;BME280;70385;44.538;18.532;2023-06-10T00:35:37;98993.50;;;14.19;97.58
80927;BME280;70385;44.538;18.532;2023-06-10T00:38:03;98993.06;;;14.12;97.63
80927;BME280;70385;44.538;18.532;2023-06-10T00:40:29;98993.44;;;14.06;97.56
80927;BME280;70385;44.538;18.532;2023-06-10T00:42:59;98990.06;;;14.04;98.03
80927;BME280;70385;44.538;18.532;2023-06-10T00:45:25;98993.16;;;14.11;97.83
80927;BME280;70385;44.538;18.532;2023-06-10T00:47:51;98989.59;;;14.12;97.73
80927;BME280;70385;44.538;18.532;2023-06-10T00:50:18;98994.38;;;14.05;98.11
80927;BME280;70385;44.538;18.532;2023-06-10T00:52:45;99001.44;;;14.05;97.88
80927;BME280;70385;44.538;18.532;2023-06-10T00:55:17;99002.78;;;13.97;97.77
80927;BME280;70385;44.538;18.532;2023-06-10T00:57:51;99004.03;;;13.92;97.95
80927;BME280;70385;44.538;18.532;2023-06-10T01:00:20;99004.81;;;13.80;97.89
80927;BME280;70385;44.538;18.532;2023-06-10T01:02:47;99004.81;;;13.80;97.89
80927;BME280;70385;44.538;18.532;2023-06-10T01:05:19;98998.59;;;13.81;98.09
80927;BME280;70385;44.538;18.532;2023-06-10T01:08:13;98986.41;;;13.80;98.13
80927;BME280;70385;44.538;18.532;2023-06-10T01:10:53;98992.50;;;13.80;98.05
80927;BME280;70385;44.538;18.532;2023-06-10T01:13:25;98983.22;;;13.75;97.97
80927;BME280;70385;44.538;18.532;2023-06-10T01:16:00;98984.53;;;13.67;97.99
80927;BME280;70385;44.538;18.532;2023-06-10T01:18:32;98992.41;;;13.67;98.02
80927;BME280;70385;44.538;18.532;2023-06-10T01:21:03;98992.53;;;13.66;98.05
80927;BME280;70385;44.538;18.532;2023-06-10T01:23:36;98992.91;;;13.60;98.11
80927;BME280;70385;44.538;18.532;2023-06-10T01:26:09;98986.06;;;13.57;98.27
80927;BME280;70385;44.538;18.532;2023-06-10T01:28:44;98993.56;;;13.63;98.49
80927;BME280;70385;44.538;18.532;2023-06-10T01:34:14;98985.78;;;13.62;97.99
80927;BME280;70385;44.538;18.532;2023-06-10T01:36:46;98982.69;;;13.70;98.24
80927;BME280;70385;44.538;18.532;2023-06-10T01:39:17;98988.69;;;13.72;98.27
80927;BME280;70385;44.538;18.532;2023-06-10T01:41:48;98982.84;;;13.66;98.17
80927;BME280;70385;44.538;18.532;2023-06-10T01:44:23;98974.41;;;13.61;98.39
80927;BME280;70385;44.538;18.532;2023-06-10T01:46:51;98977.03;;;13.61;98.20
80927;BME280;70385;44.538;18.532;2023-06-10T01:49:17;98974.91;;;13.54;98.14
80927;BME280;70385;44.538;18.532;2023-06-10T01:51:45;98984.28;;;13.58;98.25
80927;BME280;70385;44.538;18.532;2023-06-10T01:54:13;98977.16;;;13.60;98.27
80927;BME280;70385;44.538;18.532;2023-06-10T01:56:41;98982.31;;;13.61;98.23
80927;BME280;70385;44.538;18.532;2023-06-10T01:59:10;98973.69;;;13.45;98.33
80927;BME280;70385;44.538;18.532;2023-06-10T02:01:39;98978.09;;;13.45;98.06
80927;BME280;70385;44.538;18.532;2023-06-10T02:04:07;98978.69;;;13.50;98.20
80927;BME280;70385;44.538;18.532;2023-06-10T02:06:36;98998.09;;;13.47;98.28
80927;BME280;70385;44.538;18.532;2023-06-10T02:09:03;98985.44;;;13.40;98.01
80927;BME280;70385;44.538;18.532;2023-06-10T02:11:31;98981.41;;;13.34;98.19
80927;BME280;70385;44.538;18.532;2023-06-10T02:14:00;98983.94;;;13.35;98.06
80927;BME280;70385;44.538;18.532;2023-06-10T02:16:27;98977.09;;;13.33;98.44
80927;BME280;70385;44.538;18.532;2023-06-10T02:18:56;98974.47;;;13.33;98.59
80927;BME280;70385;44.538;18.532;2023-06-10T02:21:25;98971.84;;;13.33;98.14
80927;BME280;70385;44.538;18.532;2023-06-10T02:23:55;98978.19;;;13.29;98.40
80927;BME280;70385;44.538;18.532;2023-06-10T02:26:22;98993.41;;;13.38;98.29
80927;BME280;70385;44.538;18.532;2023-06-10T02:28:56;98985.34;;;13.27;98.71
80927;BME280;70385;44.538;18.532;2023-06-10T02:31:28;98990.59;;;13.27;98.23
80927;BME280;70385;44.538;18.532;2023-06-10T02:34:00;98984.50;;;13.26;98.15
80927;BME280;70385;44.538;18.532;2023-06-10T02:36:27;98988.25;;;13.22;98.29
80927;BME280;70385;44.538;18.532;2023-06-10T02:38:58;98997.91;;;13.22;98.46
80927;BME280;70385;44.538;18.532;2023-06-10T02:41:26;98989.38;;;13.18;98.27
80927;BME280;70385;44.538;18.532;2023-06-10T02:43:55;98998.75;;;13.22;98.22
80927;BME280;70385;44.538;18.532;2023-06-10T02:46:23;99000.91;;;13.30;98.33
80927;BME280;70385;44.538;18.532;2023-06-10T02:48:49;98999.06;;;13.32;98.42
80927;BME280;70385;44.538;18.532;2023-06-10T02:51:20;98996.44;;;13.32;98.17
80927;BME280;70385;44.538;18.532;2023-06-10T02:53:49;98994.66;;;13.32;98.27
80927;BME280;70385;44.538;18.532;2023-06-10T02:56:18;99000.91;;;13.30;98.12
80927;BME280;70385;44.538;18.532;2023-06-10T02:58:46;99000.44;;;13.23;98.20
80927;BME280;70385;44.538;18.532;2023-06-10T03:01:16;99008.44;;;13.22;98.48
80927;BME280;70385;44.538;18.532;2023-06-10T03:04:10;99000.56;;;13.22;98.54
80927;BME280;70385;44.538;18.532;2023-06-10T03:06:59;98998.13;;;13.19;98.36
80927;BME280;70385;44.538;18.532;2023-06-10T03:09:34;99006.06;;;13.17;98.46
80927;BME280;70385;44.538;18.532;2023-06-10T03:12:02;99019.28;;;13.16;98.42
80927;BME280;70385;44.538;18.532;2023-06-10T03:14:33;99015.06;;;13.13;98.72
80927;BME280;70385;44.538;18.532;2023-06-10T03:17:04;99023.19;;;13.08;98.71
80927;BME280;70385;44.538;18.532;2023-06-10T03:19:35;99025.09;;;13.06;98.35
80927;BME280;70385;44.538;18.532;2023-06-10T03:22:11;99026.13;;;13.04;98.75
80927;BME280;70385;44.538;18.532;2023-06-10T03:24:42;99023.59;;;13.02;98.58
80927;BME280;70385;44.538;18.532;2023-06-10T03:27:10;99023.03;;;13.12;98.47
80927;BME280;70385;44.538;18.532;2023-06-10T03:29:42;99025.69;;;13.12;98.50
80927;BME280;70385;44.538;18.532;2023-06-10T03:32:11;99035.91;;;13.16;98.53
80927;BME280;70385;44.538;18.532;2023-06-10T03:34:40;99027.38;;;13.27;98.48
80927;BME280;70385;44.538;18.532;2023-06-10T03:37:07;99024.56;;;13.30;98.08
80927;BME280;70385;44.538;18.532;2023-06-10T03:39:35;99034.06;;;13.32;98.03
80927;BME280;70385;44.538;18.532;2023-06-10T03:42:04;99030.38;;;13.21;97.58
80927;BME280;70385;44.538;18.532;2023-06-10T03:44:32;99039.22;;;13.20;97.46
80927;BME280;70385;44.538;18.532;2023-06-10T03:47:14;99032.44;;;13.30;97.15
80927;BME280;70385;44.538;18.532;2023-06-10T03:49:43;99032.28;;;13.33;96.98
80927;BME280;70385;44.538;18.532;2023-06-10T03:52:11;99041.09;;;13.32;96.44
80927;BME280;70385;44.538;18.532;2023-06-10T03:54:40;99034.72;;;13.36;96.85
80927;BME280;70385;44.538;18.532;2023-06-10T03:57:16;99045.22;;;13.50;96.68
80927;BME280;70385;44.538;18.532;2023-06-10T03:59:45;99039.00;;;13.65;97.37
80927;BME280;70385;44.538;18.532;2023-06-10T04:02:20;99027.53;;;13.66;96.71
80927;BME280;70385;44.538;18.532;2023-06-10T04:04:50;99035.63;;;13.63;96.11
80927;BME280;70385;44.538;18.532;2023-06-10T04:07:17;99032.53;;;13.71;96.28
80927;BME280;70385;44.538;18.532;2023-06-10T04:09:47;99032.16;;;13.77;95.95
80927;BME280;70385;44.538;18.532;2023-06-10T04:12:26;99034.94;;;13.88;96.05
80927;BME280;70385;44.538;18.532;2023-06-10T04:14:52;99038.78;;;13.97;95.99
80927;BME280;70385;44.538;18.532;2023-06-10T04:17:27;99032.47;;;14.00;95.81
80927;BME280;70385;44.538;18.532;2023-06-10T04:20:01;99038.00;;;14.09;95.31
80927;BME280;70385;44.538;18.532;2023-06-10T04:22:36;99046.78;;;14.22;95.30
80927;BME280;70385;44.538;18.532;2023-06-10T04:25:04;99032.56;;;14.25;95.10
80927;BME280;70385;44.538;18.532;2023-06-10T04:27:39;99043.03;;;14.39;94.78
80927;BME280;70385;44.538;18.532;2023-06-10T04:30:07;99032.72;;;14.63;94.32
80927;BME280;70385;44.538;18.532;2023-06-10T04:32:36;99035.38;;;14.76;93.42
80927;BME280;70385;44.538;18.532;2023-06-10T04:35:13;99036.97;;;14.78;92.81
80927;BME280;70385;44.538;18.532;2023-06-10T04:37:42;99039.59;;;14.78;92.64
80927;BME280;70385;44.538;18.532;2023-06-10T04:40:14;99033.72;;;15.00;92.34
80927;BME280;70385;44.538;18.532;2023-06-10T04:42:42;99043.22;;;15.28;91.52
80927;BME280;70385;44.538;18.532;2023-06-10T04:45:10;99036.38;;;15.13;91.75
80927;BME280;70385;44.538;18.532;2023-06-10T04:47:39;99037.63;;;15.20;92.01
80927;BME280;70385;44.538;18.532;2023-06-10T04:50:08;99038.88;;;15.02;92.01
80927;BME280;70385;44.538;18.532;2023-06-10T04:52:34;99043.13;;;15.04;92.02
80927;BME280;70385;44.538;18.532;2023-06-10T04:55:02;99035.00;;;14.95;91.73
80927;BME280;70385;44.538;18.532;2023-06-10T04:57:33;99035.13;;;15.06;91.75
80927;BME280;70385;44.538;18.532;2023-06-10T04:59:58;99041.66;;;15.13;91.77
80927;BME280;70385;44.538;18.532;2023-06-10T05:02:25;99036.59;;;15.10;91.73
80927;BME280;70385;44.538;18.532;2023-06-10T05:04:52;99033.63;;;15.27;92.39
80927;BME280;70385;44.538;18.532;2023-06-10T05:07:22;99031.31;;;15.35;91.97
80927;BME280;70385;44.538;18.532;2023-06-10T05:09:49;99032.44;;;15.57;92.35
80927;BME280;70385;44.538;18.532;2023-06-10T05:12:16;99027.94;;;15.59;91.63
80927;BME280;70385;44.538;18.532;2023-06-10T05:14:45;99039.50;;;15.82;90.54
80927;BME280;70385;44.538;18.532;2023-06-10T05:17:11;99051.84;;;16.18;89.47
80927;BME280;70385;44.538;18.532;2023-06-10T05:19:39;99041.56;;;16.50;88.36
80927;BME280;70385;44.538;18.532;2023-06-10T05:22:05;99042.47;;;16.61;88.06
80927;BME280;70385;44.538;18.532;2023-06-10T05:24:31;99042.06;;;16.79;88.38
80927;BME280;70385;44.538;18.532;2023-06-10T05:27:00;99047.38;;;16.90;87.71
80927;BME280;70385;44.538;18.532;2023-06-10T05:29:27;99037.78;;;16.89;86.68
80927;BME280;70385;44.538;18.532;2023-06-10T05:31:54;99038.50;;;16.91;87.04
80927;BME280;70385;44.538;18.532;2023-06-10T05:34:22;99038.06;;;17.08;88.22
80927;BME280;70385;44.538;18.532;2023-06-10T05:36:49;99041.81;;;17.50;85.20
80927;BME280;70385;44.538;18.532;2023-06-10T05:39:16;99036.66;;;17.71;85.87
80927;BME280;70385;44.538;18.532;2023-06-10T05:41:55;99042.41;;;18.10;83.67
80927;BME280;70385;44.538;18.532;2023-06-10T05:44:22;99043.72;;;18.15;83.57
80927;BME280;70385;44.538;18.532;2023-06-10T05:46:49;99045.34;;;17.96;84.63
80927;BME280;70385;44.538;18.532;2023-06-10T05:49:15;99047.81;;;18.19;82.81
80927;BME280;70385;44.538;18.532;2023-06-10T05:51:43;99049.03;;;18.47;81.35
80927;BME280;70385;44.538;18.532;2023-06-10T05:54:09;99046.81;;;18.75;81.17
80927;BME280;70385;44.538;18.532;2023-06-10T05:56:39;99044.97;;;18.43;81.84
80927;BME280;70385;44.538;18.532;2023-06-10T05:59:07;99034.50;;;18.74;81.01
80927;BME280;70385;44.538;18.532;2023-06-10T06:01:33;99043.88;;;18.78;81.63
80927;BME280;70385;44.538;18.532;2023-06-10T06:04:00;99039.88;;;18.84;80.58
80927;BME280;70385;44.538;18.532;2023-06-10T06:06:29;99039.16;;;19.02;78.17
80927;BME280;70385;44.538;18.532;2023-06-10T06:08:57;99037.81;;;18.87;80.58
80927;BME280;70385;44.538;18.532;2023-06-10T06:11:24;99049.94;;;18.69;80.80
80927;BME280;70385;44.538;18.532;2023-06-10T06:13:52;99036.13;;;18.54;81.43
80927;BME280;70385;44.538;18.532;2023-06-10T06:16:18;99043.13;;;18.55;82.53
80927;BME280;70385;44.538;18.532;2023-06-10T06:18:45;99029.38;;;18.50;81.00
80927;BME280;70385;44.538;18.532;2023-06-10T06:21:12;99042.88;;;18.47;80.98
80927;BME280;70385;44.538;18.532;2023-06-10T06:23:37;99032.53;;;18.55;80.49
80927;BME280;70385;44.538;18.532;2023-06-10T06:26:05;99042.75;;;18.92;78.70
80927;BME280;70385;44.538;18.532;2023-06-10T06:28:33;99040.44;;;18.66;78.34
80927;BME280;70385;44.538;18.532;2023-06-10T06:30:59;99029.53;;;18.80;80.30
80927;BME280;70385;44.538;18.532;2023-06-10T06:33:27;99026.63;;;19.04;76.72
80927;BME280;70385;44.538;18.532;2023-06-10T06:35:53;99030.72;;;19.39;76.07
80927;BME280;70385;44.538;18.532;2023-06-10T06:38:20;99025.25;;;19.31;75.57
80927;BME280;70385;44.538;18.532;2023-06-10T06:40:46;99021.34;;;19.65;75.23
80927;BME280;70385;44.538;18.532;2023-06-10T06:43:17;99024.06;;;19.85;75.11
80927;BME280;70385;44.538;18.532;2023-06-10T06:45:58;99023.00;;;19.87;70.84
80927;BME280;70385;44.538;18.532;2023-06-10T06:48:24;99020.53;;;20.15;72.53
80927;BME280;70385;44.538;18.532;2023-06-10T06:50:57;99021.09;;;20.38;71.18
80927;BME280;70385;44.538;18.532;2023-06-10T06:53:26;99022.78;;;20.29;72.16
80927;BME280;70385;44.538;18.532;2023-06-10T06:55:53;99017.88;;;20.24;71.82
80927;BME280;70385;44.538;18.532;2023-06-10T06:58:43;99018.63;;;20.55;71.37
80927;BME280;70385;44.538;18.532;2023-06-10T07:01:10;99017.78;;;20.55;70.08
80927;BME280;70385;44.538;18.532;2023-06-10T07:03:36;99012.69;;;20.13;72.40
80927;BME280;70385;44.538;18.532;2023-06-10T07:06:03;99014.16;;;20.46;73.42
80927;BME280;70385;44.538;18.532;2023-06-10T07:08:29;99010.75;;;20.15;71.87
80927;BME280;70385;44.538;18.532;2023-06-10T07:11:00;99014.91;;;19.89;72.81
80927;BME280;70385;44.538;18.532;2023-06-10T07:13:26;99008.69;;;19.79;73.77
80927;BME280;70385;44.538;18.532;2023-06-10T07:15:53;99010.09;;;19.83;74.71
80927;BME280;70385;44.538;18.532;2023-06-10T07:18:21;99001.22;;;20.22;72.55
80927;BME280;70385;44.538;18.532;2023-06-10T07:20:52;99018.06;;;20.52;70.06
80927;BME280;70385;44.538;18.532;2023-06-10T07:23:22;99014.69;;;20.79;69.45
80927;BME280;70385;44.538;18.532;2023-06-10T07:25:51;99005.28;;;21.04;67.37
80927;BME280;70385;44.538;18.532;2023-06-10T07:28:18;99009.72;;;21.32;67.51
80927;BME280;70385;44.538;18.532;2023-06-10T07:30:48;98994.66;;;21.50;65.36
80927;BME280;70385;44.538;18.532;2023-06-10T07:33:16;99002.47;;;21.62;65.66
80927;BME280;70385;44.538;18.532;2023-06-10T07:35:42;99008.66;;;21.52;65.42
80927;BME280;70385;44.538;18.532;2023-06-10T07:38:11;99006.75;;;21.35;66.63
80927;BME280;70385;44.538;18.532;2023-06-10T07:40:39;99001.38;;;21.55;66.31
80927;BME280;70385;44.538;18.532;2023-06-10T07:43:05;98998.56;;;21.56;66.92
80927;BME280;70385;44.538;18.532;2023-06-10T07:45:31;99001.56;;;21.98;64.94
80927;BME280;70385;44.538;18.532;2023-06-10T07:47:58;99002.09;;;22.29;67.11
80927;BME280;70385;44.538;18.532;2023-06-10T07:50:24;99002.25;;;22.28;64.67
80927;BME280;70385;44.538;18.532;2023-06-10T07:52:53;99005.81;;;22.54;64.51
80927;BME280;70385;44.538;18.532;2023-06-10T07:55:19;98996.66;;;22.75;65.51
80927;BME280;70385;44.538;18.532;2023-06-10T07:57:46;98997.31;;;22.94;64.10
80927;BME280;70385;44.538;18.532;2023-06-10T08:00:12;98996.03;;;22.81;65.25
80927;BME280;70385;44.538;18.532;2023-06-10T08:02:43;98995.56;;;23.03;62.61
80927;BME280;70385;44.538;18.532;2023-06-10T08:05:11;98994.03;;;22.57;65.15
80927;BME280;70385;44.538;18.532;2023-06-10T08:07:39;98988.03;;;22.98;63.40
80927;BME280;70385;44.538;18.532;2023-06-10T08:10:08;98978.97;;;23.17;63.93
80927;BME280;70385;44.538;18.532;2023-06-10T08:12:36;98981.53;;;23.27;65.18
80927;BME280;70385;44.538;18.532;2023-06-10T08:15:03;98975.34;;;23.52;62.53
80927;BME280;70385;44.538;18.532;2023-06-10T08:17:32;98982.63;;;23.42;62.21
80927;BME280;70385;44.538;18.532;2023-06-10T08:19:58;98984.69;;;23.22;61.93
80927;BME280;70385;44.538;18.532;2023-06-10T08:22:25;98976.91;;;23.71;61.80
80927;BME280;70385;44.538;18.532;2023-06-10T08:24:52;98972.56;;;24.12;60.46
80927;BME280;70385;44.538;18.532;2023-06-10T08:27:18;98974.72;;;24.17;59.71
80927;BME280;70385;44.538;18.532;2023-06-10T08:29:47;98969.25;;;24.43;59.87
80927;BME280;70385;44.538;18.532;2023-06-10T08:32:13;98966.63;;;23.84;60.89
80927;BME280;70385;44.538;18.532;2023-06-10T08:34:40;98970.22;;;24.17;59.16
80927;BME280;70385;44.538;18.532;2023-06-10T08:37:09;98963.88;;;24.10;60.78
80927;BME280;70385;44.538;18.532;2023-06-10T08:39:34;98970.44;;;24.40;57.21
80927;BME280;70385;44.538;18.532;2023-06-10T08:44:46;98960.22;;;24.93;56.06
80927;BME280;70385;44.538;18.532;2023-06-10T08:47:16;98951.69;;;24.97;56.57
80927;BME280;70385;44.538;18.532;2023-06-10T08:49:49;98954.03;;;24.92;56.57
80927;BME280;70385;44.538;18.532;2023-06-10T08:52:17;98951.34;;;24.84;57.20
80927;BME280;70385;44.538;18.532;2023-06-10T08:55:05;98940.34;;;24.71;56.19
80927;BME280;70385;44.538;18.532;2023-06-10T08:57:34;98958.34;;;25.18;56.34
80927;BME280;70385;44.538;18.532;2023-06-10T09:00:03;98945.28;;;25.23;55.49
80927;BME280;70385;44.538;18.532;2023-06-10T09:02:34;98946.31;;;25.05;56.12
80927;BME280;70385;44.538;18.532;2023-06-10T09:05:02;98946.00;;;24.84;57.07
80927;BME280;70385;44.538;18.532;2023-06-10T09:07:30;98944.44;;;25.22;54.22
80927;BME280;70385;44.538;18.532;2023-06-10T09:10:03;98945.78;;;25.26;54.36
80927;BME280;70385;44.538;18.532;2023-06-10T09:12:31;98941.72;;;25.86;53.84
80927;BME280;70385;44.538;18.532;2023-06-10T09:14:57;98931.94;;;25.93;54.10
80927;BME280;70385;44.538;18.532;2023-06-10T09:17:35;98938.84;;;25.48;53.30
80927;BME280;70385;44.538;18.532;2023-06-10T09:20:09;98938.13;;;25.93;52.79
80927;BME280;70385;44.538;18.532;2023-06-10T09:22:36;98929.88;;;26.03;51.93
80927;BME280;70385;44.538;18.532;2023-06-10T09:25:07;98932.03;;;26.53;51.65
80927;BME280;70385;44.538;18.532;2023-06-10T09:27:48;98938.28;;;26.69;52.22
80927;BME280;70385;44.538;18.532;2023-06-10T09:30:43;98919.66;;;26.67;51.82
80927;BME280;70385;44.538;18.532;2023-06-10T09:33:14;98920.13;;;26.71;52.88
80927;BME280;70385;44.538;18.532;2023-06-10T09:35:49;98911.34;;;26.62;55.12
80927;BME280;70385;44.538;18.532;2023-06-10T09:38:21;98913.72;;;27.24;53.40
80927;BME280;70385;44.538;18.532;2023-06-10T09:40:54;98905.47;;;27.40;49.68
80927;BME280;70385;44.538;18.532;2023-06-10T09:43:45;98905.19;;;27.35;51.13
80927;BME280;70385;44.538;18.532;2023-06-10T09:46:19;98913.69;;;27.68;48.69
80927;BME280;70385;44.538;18.532;2023-06-10T09:48:47;98910.28;;;27.15;50.41
80927;BME280;70385;44.538;18.532;2023-06-10T09:51:14;98904.41;;;26.97;51.90
80927;BME280;70385;44.538;18.532;2023-06-10T09:53:53;98903.34;;;27.06;48.40
80927;BME280;70385;44.538;18.532;2023-06-10T09:56:35;98900.94;;;27.11;48.64
80927;BME280;70385;44.538;18.532;2023-06-10T09:59:03;98907.75;;;26.99;49.51
80927;BME280;70385;44.538;18.532;2023-06-10T10:01:32;98894.69;;;27.70;48.28
80927;BME280;70385;44.538;18.532;2023-06-10T10:03:59;98899.00;;;27.86;48.38
80927;BME280;70385;44.538;18.532;2023-06-10T10:06:28;98898.38;;;28.05;48.30
80927;BME280;70385;44.538;18.532;2023-06-10T10:08:58;98886.41;;;27.86;48.26
80927;BME280;70385;44.538;18.532;2023-06-10T10:11:25;98892.06;;;27.26;47.52
80927;BME280;70385;44.538;18.532;2023-06-10T10:13:53;98892.78;;;27.85;47.85
80927;BME280;70385;44.538;18.532;2023-06-10T10:16:31;98900.31;;;27.09;45.75
80927;BME280;70385;44.538;18.532;2023-06-10T10:19:07;98894.09;;;26.42;47.21
80927;BME280;70385;44.538;18.532;2023-06-10T10:21:39;98888.00;;;26.25;48.42
80927;BME280;70385;44.538;18.532;2023-06-10T10:24:14;98890.13;;;26.07;47.99
80927;BME280;70385;44.538;18.532;2023-06-10T10:26:43;98886.38;;;25.93;48.13
80927;BME280;70385;44.538;18.532;2023-06-10T10:29:20;98881.25;;;26.29;48.15
80927;BME280;70385;44.538;18.532;2023-06-10T10:31:51;98873.56;;;27.67;44.62
80927;BME280;70385;44.538;18.532;2023-06-10T10:37:35;98869.75;;;27.61;45.37
80927;BME280;70385;44.538;18.532;2023-06-10T10:40:02;98866.53;;;26.77;49.06
80927;BME280;70385;44.538;18.532;2023-06-10T10:42:29;98871.56;;;26.66;49.70
80927;BME280;70385;44.538;18.532;2023-06-10T10:44:56;98866.44;;;26.56;49.44
80927;BME280;70385;44.538;18.532;2023-06-10T10:47:28;98865.28;;;26.36;49.42
80927;BME280;70385;44.538;18.532;2023-06-10T10:49:56;98859.84;;;25.98;50.03
80927;BME280;70385;44.538;18.532;2023-06-10T10:52:28;98860.66;;;26.82;48.35
80927;BME280;70385;44.538;18.532;2023-06-10T10:55:13;98852.97;;;27.74;45.96
80927;BME280;70385;44.538;18.532;2023-06-10T10:57:40;98851.38;;;28.01;47.20
80927;BME280;70385;44.538;18.532;2023-06-10T11:00:11;98845.47;;;27.69;47.89
80927;BME280;70385;44.538;18.532;2023-06-10T11:02:44;98853.69;;;26.73;48.44
80927;BME280;70385;44.538;18.532;2023-06-10T11:05:16;98860.44;;;26.69;49.88
80927;BME280;70385;44.538;18.532;2023-06-10T11:07:54;98862.69;;;26.19;50.37
80927;BME280;70385;44.538;18.532;2023-06-10T11:10:33;98872.72;;;26.02;52.61
80927;BME280;70385;44.538;18.532;2023-06-10T11:13:14;98873.53;;;25.49;52.89
80927;BME280;70385;44.538;18.532;2023-06-10T11:15:49;98877.53;;;25.53;52.45
80927;BME280;70385;44.538;18.532;2023-06-10T11:18:29;98883.66;;;24.59;53.71
80927;BME280;70385;44.538;18.532;2023-06-10T11:21:04;98879.47;;;24.00;54.55
80927;BME280;70385;44.538;18.532;2023-06-10T11:23:33;98876.81;;;24.16;55.18
80927;BME280;70385;44.538;18.532;2023-06-10T11:26:33;98872.97;;;23.94;56.19
80927;BME280;70385;44.538;18.532;2023-06-10T11:29:03;98871.16;;;24.51;55.37
80927;BME280;70385;44.538;18.532;2023-06-10T11:31:33;98868.25;;;25.64;53.25
80927;BME280;70385;44.538;18.532;2023-06-10T11:34:00;98871.03;;;26.01;51.66
80927;BME280;70385;44.538;18.532;2023-06-10T11:36:30;98871.78;;;26.56;50.90
80927;BME280;70385;44.538;18.532;2023-06-10T11:39:00;98856.38;;;26.87;49.78
80927;BME280;70385;44.538;18.532;2023-06-10T11:41:30;98855.25;;;26.97;50.85
80927;BME280;70385;44.538;18.532;2023-06-10T11:44:22;98857.53;;;27.08;50.53
80927;BME280;70385;44.538;18.532;2023-06-10T11:46:59;98849.66;;;27.06;50.03
80927;BME280;70385;44.538;18.532;2023-06-10T11:49:27;98855.06;;;26.54;50.62
80927;BME280;70385;44.538;18.532;2023-06-10T11:51:53;98840.84;;;27.12;50.47
80927;BME280;70385;44.538;18.532;2023-06-10T11:54:20;98835.19;;;27.22;47.23
80927;BME280;70385;44.538;18.532;2023-06-10T11:56:49;98838.41;;;25.98;51.71
80927;BME280;70385;44.538;18.532;2023-06-10T11:59:17;98841.38;;;26.78;50.38
80927;BME280;70385;44.538;18.532;2023-06-10T12:01:44;98838.13;;;27.42;46.24
80927;BME280;70385;44.538;18.532;2023-06-10T12:04:14;98845.22;;;27.86;46.76
80927;BME280;70385;44.538;18.532;2023-06-10T12:12:01;98832.66;;;28.14;44.46
80927;BME280;70385;44.538;18.532;2023-06-10T12:14:50;98836.47;;;28.76;42.76
80927;BME280;70385;44.538;18.532;2023-06-10T12:19:50;98826.81;;;29.29;43.36
80927;BME280;70385;44.538;18.532;2023-06-10T12:22:16;98828.09;;;29.33;42.96
80927;BME280;70385;44.538;18.532;2023-06-10T12:25:04;98827.41;;;29.85;42.42
80927;BME280;70385;44.538;18.532;2023-06-10T12:27:33;98817.84;;;29.63;42.63
80927;BME280;70385;44.538;18.532;2023-06-10T12:30:03;98822.53;;;30.29;38.64
80927;BME280;70385;44.538;18.532;2023-06-10T12:32:40;98816.69;;;30.12;40.50
80927;BME280;70385;44.538;18.532;2023-06-10T12:35:10;98815.44;;;30.21;40.86
80927;BME280;70385;44.538;18.532;2023-06-10T12:37:37;98814.41;;;30.09;41.46
80927;BME280;70385;44.538;18.532;2023-06-10T12:40:05;98809.63;;;30.24;41.34
80927;BME280;70385;44.538;18.532;2023-06-10T12:42:37;98805.88;;;30.25;40.38
80927;BME280;70385;44.538;18.532;2023-06-10T12:45:05;98801.09;;;30.54;40.80
80927;BME280;70385;44.538;18.532;2023-06-10T12:47:36;98800.06;;;30.02;41.73
80927;BME280;70385;44.538;18.532;2023-06-10T12:50:07;98801.72;;;30.03;42.76
80927;BME280;70385;44.538;18.532;2023-06-10T12:52:36;98797.13;;;29.83;43.03
80927;BME280;70385;44.538;18.532;2023-06-10T12:55:02;98802.34;;;30.05;42.24
80927;BME280;70385;44.538;18.532;2023-06-10T12:57:33;98796.47;;;29.07;46.00
80927;BME280;70385;44.538;18.532;2023-06-10T13:00:02;98802.06;;;29.53;43.66
80927;BME280;70385;44.538;18.532;2023-06-10T13:02:30;98800.97;;;28.31;45.93
80927;BME280;70385;44.538;18.532;2023-06-10T13:04:58;98806.72;;;27.78;47.23
80927;BME280;70385;44.538;18.532;2023-06-10T13:07:24;98810.47;;;25.92;52.28
80927;BME280;70385;44.538;18.532;2023-06-10T13:09:52;98806.00;;;24.92;58.67
80927;BME280;70385;44.538;18.532;2023-06-10T13:12:18;98802.97;;;24.39;62.30
80927;BME280;70385;44.538;18.532;2023-06-10T13:14:45;98801.28;;;23.65;69.94
80927;BME280;70385;44.538;18.532;2023-06-10T13:17:11;98803.16;;;23.97;70.33
80927;BME280;70385;44.538;18.532;2023-06-10T13:19:38;98793.13;;;23.75;72.07
80927;BME280;70385;44.538;18.532;2023-06-10T13:22:05;98787.59;;;23.60;73.77